Airfield :
LOGIN :

Register | Disclaimer

   EN    FR    IT 

 










Legend :    VFR   Marginal VFR   IFR   Intensive IFR   Very Intensive IFR
Visi :
Ceiling :
>= 8 km
>= 3000ft
5 to 8 km
1000 to 3000 ft
1500m to 5 km
500 to 1000 ft
800 to 1500m
200 to 500 ft
< 800m
< 200 ft
Symbols :   Thunderstorms  Fog  Heavy snow  Heavy precipitations  Wind > 20 kt
SIGMETs :     Misc.  Thunderstorms  Icing  Turbulence  Mountain Waves  Volcanic Ashes







- Airport Elevation : 55 ft
- IATA code : DSA
- Download approach charts


EGCN - Robin Hood Doncaster Sheffield

CURRENT METAR :
  • 201020Z 31014KT CAVOK 16/11 Q1025

EXPIRED METARs :
  • 200950Z 29013KT CAVOK 16/11 Q1025
  • 200920Z 31010KT CAVOK 16/10 Q1025
  • 200850Z 30010KT 270V330 CAVOK 15/10 Q1025
  • 200820Z 31011KT CAVOK 14/10 Q1024
  • 200750Z 32011KT CAVOK 14/11 Q1024

TAF TAF EGCN
Valid from the 20 at 06:00 until the 21 at 06:00 UTC


200501Z 2006/2106 31006KT CAVOK
PROB30 2006/2007 8000
PROB30 2104/2106 6000
No reported NOTAMs for that airfield.



MET'MAP, your aeronautical weather chart ! - Copyright ORBIFLY December 2007 - Disclaimer

ORBIFLY MET'MAP TEAM :

Programming & Development : Alexandra Zaïnal
Concept & Development : Baudouin d'Aumeries
Co-Development & Prog : Marc-Olivier Méhu
Technical & hardware support : Manuel Goepfert

Contact : metmap@orbifly.com




SOURCES & CREDITS :

   NOAA